Lucky Cat — 8PAH6 — position and weather

sailwx.info

Track history (hours):
 
Tides and Currents Weather Stations Pressure Air Temp Water Temp Dewpoint Dewpoint Depression Visibility Wind Speed Wind Dir Waves Ship Positions

Lucky Cat

Last reported at 2017-Dec-09 22:15 UTC. Time now 2017-Dec-17 08:24 UTC.
Position N 28°11' W 015°39'.

Length 13 m.

Type: Sailing vessel. MMSI: 314399000.

Date/timePositionNaut miles runAvg speedWind from/ knotsBaromVisibWave heightAir tempDewpointWater temp
2017-Dec-09 22:15N 28°11' W 015°39'1 5.6
2017-Dec-09 22:00N 28°11' W 015°38'3 5.6
2017-Dec-09 21:30N 28°11' W 015°35'3 5.7
2017-Dec-09 21:00N 28°12' W 015°32'3 5.8
2017-Dec-09 20:30N 28°12' W 015°28'3 5.9
2017-Dec-09 20:00N 28°12' W 015°25'3 5.3
2017-Dec-09 19:30N 28°09' W 015°24'2 4.2
2017-Dec-09 19:00N 28°07' W 015°25'1 1.3
2017-Dec-09 18:24N 28°08' W 015°26'0 0.0
2017-Dec-09 17:57N 28°08' W 015°26'0 0.0
2017-Dec-09 17:27N 28°08' W 015°26'0 0.0
2017-Dec-09 16:57N 28°08' W 015°26'0 0.0
2017-Dec-09 16:27N 28°08' W 015°26'0 0.0
2017-Dec-09 15:57N 28°08' W 015°26'0 0.0
2017-Dec-09 15:30N 28°08' W 015°26'0 0.0
2017-Dec-09 15:00N 28°08' W 015°26'0 0.0
2017-Dec-09 14:30N 28°08' W 015°26'0 0.0
2017-Dec-09 14:00N 28°08' W 015°26'0 0.0
2017-Dec-09 13:30N 28°08' W 015°26'0 0.0
2017-Dec-09 13:00N 28°08' W 015°26'0 0.0
2017-Dec-09 12:30N 28°08' W 015°26'0 0.0
2017-Dec-09 12:00N 28°08' W 015°26'0 0.0
2017-Dec-09 11:30N 28°08' W 015°26'0 0.0
2017-Dec-09 11:00N 28°08' W 015°26'0 0.0
2017-Dec-09 10:21N 28°08' W 015°26'0 0.0
2017-Dec-09 10:00N 28°08' W 015°26'0 0.0
2017-Dec-09 09:30N 28°08' W 015°26'0 0.0
2017-Dec-09 09:00N 28°08' W 015°26'0 0.0
2017-Dec-09 08:21N 28°08' W 015°26'0 0.0
2017-Dec-09 07:51N 28°08' W 015°26'0 0.0
2017-Dec-09 07:21N 28°08' W 015°26'0 0.0
2017-Dec-09 06:54N 28°08' W 015°26'0 0.0
2017-Dec-09 06:24N 28°08' W 015°26'0 0.0
2017-Dec-09 05:54N 28°08' W 015°26'0 0.0
2017-Dec-09 05:24N 28°08' W 015°26'0 0.0
2017-Dec-09 04:54N 28°08' W 015°26'0 0.0
2017-Dec-09 04:27N 28°08' W 015°26'0 0.0
2017-Dec-09 03:54N 28°08' W 015°26'0 0.0
2017-Dec-09 03:27N 28°08' W 015°26'0 0.0
2017-Dec-09 02:57N 28°08' W 015°26'0 0.0
2017-Dec-09 02:27N 28°08' W 015°26'0 0.0
2017-Dec-09 01:57N 28°08' W 015°26'0 0.0
2017-Dec-09 01:30N 28°08' W 015°26'0 0.0
2017-Dec-09 01:00N 28°08' W 015°26'0 0.0
2017-Dec-09 00:30N 28°08' W 015°26'0 0.0
2017-Dec-09 00:00N 28°08' W 015°26'0 0.0
2017-Dec-08 23:30N 28°08' W 015°26'0 0.0
2017-Dec-08 23:00N 28°08' W 015°26'0 0.0
2017-Dec-08 22:30N 28°08' W 015°26'0 0.0
2017-Dec-08 22:00N 28°08' W 015°26'0 0.0
2017-Dec-08 21:30N 28°08' W 015°26'0 0.0
2017-Dec-08 21:00N 28°08' W 015°26'0 0.0
2017-Dec-08 20:30N 28°08' W 015°26'0 0.0
2017-Dec-08 20:00N 28°08' W 015°26'0 0.0
2017-Dec-08 19:30N 28°08' W 015°26'0 0.0
2017-Dec-08 19:00N 28°08' W 015°26'0 0.0
2017-Dec-08 18:18N 28°08' W 015°26'0 0.0
2017-Dec-08 17:51N 28°08' W 015°26'0 0.0
2017-Dec-08 16:54N 28°08' W 015°26'0 0.0
2017-Dec-08 16:24N 28°08' W 015°26'0 0.0
2017-Dec-08 15:54N 28°08' W 015°26'0 0.0
2017-Dec-08 15:24N 28°08' W 015°26'0 0.0
2017-Dec-08 14:54N 28°08' W 015°26'0 0.0
2017-Dec-08 14:24N 28°08' W 015°26'0 0.0
2017-Dec-08 13:57N 28°08' W 015°26'0 0.0
2017-Dec-08 13:27N 28°08' W 015°26'0 0.0
2017-Dec-08 12:57N 28°08' W 015°26'0 0.0
2017-Dec-08 12:24N 28°08' W 015°26'0 0.0
2017-Dec-08 11:57N 28°08' W 015°26'0 0.1
2017-Dec-08 11:29N 28°08' W 015°26'2 4.1
2017-Dec-08 10:59N 28°08' W 015°23'3 5.0
2017-Dec-08 10:29N 28°08' W 015°20'3 5.2
2017-Dec-08 09:58N 28°09' W 015°18'3 6.7
2017-Dec-08 09:28N 28°10' W 015°14'3 5.8
2017-Dec-08 08:58N 28°10' W 015°11'3 5.7
2017-Dec-08 08:26N 28°11' W 015°07'3 5.8
2017-Dec-08 07:57N 28°12' W 015°04'3 4.8
2017-Dec-08 07:25N 28°13' W 015°02'2 4.8
2017-Dec-08 06:56N 28°14' W 014°59'2 4.7
2017-Dec-08 06:25N 28°15' W 014°57'2 4.8
2017-Dec-08 05:55N 28°17' W 014°55'2 4.9
2017-Dec-08 05:25N 28°18' W 014°52'2 4.8
2017-Dec-08 05:00N 28°19' W 014°50'  
2017-Dec-01 23:00N 28°25' W 014°48'3 5.8
2017-Dec-01 22:29N 28°24' W 014°52'3 6.1
2017-Dec-01 22:00N 28°23' W 014°55'3 6.0
2017-Dec-01 21:29N 28°22' W 014°58'3 6.1
2017-Dec-01 21:00N 28°20' W 015°01'3 6.1
2017-Dec-01 20:30N 28°18' W 015°04'3 5.7
2017-Dec-01 20:00N 28°17' W 015°06'3 5.5
2017-Dec-01 19:30N 28°16' W 015°09'3 5.3
2017-Dec-01 18:59N 28°14' W 015°12'3 5.2
2017-Dec-01 18:29N 28°13' W 015°14'3 5.0
2017-Dec-01 17:59N 28°11' W 015°16'3 5.3
2017-Dec-01 17:28N 28°10' W 015°19'3 5.7
2017-Dec-01 16:58N 28°09' W 015°22'3 5.5
2017-Dec-01 16:28N 28°07' W 015°25'1 1.3
2017-Dec-01 15:53N 28°08' W 015°26'0 0.0
2017-Dec-01 15:23N 28°08' W 015°26'0 0.0
2017-Dec-01 14:53N 28°08' W 015°26'0 0.0
2017-Dec-01 14:23N 28°08' W 015°26'0 0.0
2017-Dec-01 13:53N 28°08' W 015°26'0 0.0
2017-Dec-01 13:23N 28°08' W 015°26'0 0.0
2017-Dec-01 12:53N 28°08' W 015°26'0 0.0
2017-Dec-01 12:26N 28°08' W 015°26'0 0.0
2017-Dec-01 11:59N 28°08' W 015°26'0 0.0
2017-Dec-01 11:29N 28°08' W 015°26'0 0.0
2017-Dec-01 10:59N 28°08' W 015°26'0 0.0
2017-Dec-01 10:29N 28°08' W 015°26'0 0.0
2017-Dec-01 09:59N 28°08' W 015°26'0 0.0
2017-Dec-01 09:26N 28°08' W 015°26'0 0.0
2017-Dec-01 08:59N 28°08' W 015°26'0 0.0
2017-Dec-01 08:26N 28°08' W 015°26'0 0.0
2017-Dec-01 07:57N 28°08' W 015°26'0 0.0
2017-Dec-01 07:27N 28°08' W 015°26'0 0.0
2017-Dec-01 07:00N 28°08' W 015°26'1 1.6
2017-Dec-01 06:29N 28°07' W 015°25'2 3.6
2017-Dec-01 05:58N 28°09' W 015°24'3 5.6
2017-Dec-01 05:28N 28°12' W 015°25'3 6.2
2017-Dec-01 04:58N 28°12' W 015°28'3 6.0
2017-Dec-01 04:27N 28°12' W 015°32'3 6.1
2017-Dec-01 03:56N 28°11' W 015°35'  
Track history (hours):
 
Tides and Currents Weather Stations Pressure Air Temp Water Temp Dewpoint Dewpoint Depression Visibility Wind Speed Wind Dir Waves Ship Positions

Lucky Cat

Last reported at 2017-Dec-09 22:15 UTC. Time now 2017-Dec-17 08:24 UTC.
Position N 28°11' W 015°39'.

Length 13 m.

Type: Sailing vessel. MMSI: 314399000.

Date/timePositionNaut miles runAvg speedWind from/ knotsBaromVisibWave heightAir tempDewpointWater temp
2017-Dec-09 22:15N 28°11' W 015°39'1 5.6
2017-Dec-09 22:00N 28°11' W 015°38'3 5.6
2017-Dec-09 21:30N 28°11' W 015°35'3 5.7
2017-Dec-09 21:00N 28°12' W 015°32'3 5.8
2017-Dec-09 20:30N 28°12' W 015°28'3 5.9
2017-Dec-09 20:00N 28°12' W 015°25'3 5.3
2017-Dec-09 19:30N 28°09' W 015°24'2 4.2
2017-Dec-09 19:00N 28°07' W 015°25'1 1.3
2017-Dec-09 18:24N 28°08' W 015°26'0 0.0
2017-Dec-09 17:57N 28°08' W 015°26'0 0.0
2017-Dec-09 17:27N 28°08' W 015°26'0 0.0
2017-Dec-09 16:57N 28°08' W 015°26'0 0.0
2017-Dec-09 16:27N 28°08' W 015°26'0 0.0
2017-Dec-09 15:57N 28°08' W 015°26'0 0.0
2017-Dec-09 15:30N 28°08' W 015°26'0 0.0
2017-Dec-09 15:00N 28°08' W 015°26'0 0.0
2017-Dec-09 14:30N 28°08' W 015°26'0 0.0
2017-Dec-09 14:00N 28°08' W 015°26'0 0.0
2017-Dec-09 13:30N 28°08' W 015°26'0 0.0
2017-Dec-09 13:00N 28°08' W 015°26'0 0.0
2017-Dec-09 12:30N 28°08' W 015°26'0 0.0
2017-Dec-09 12:00N 28°08' W 015°26'0 0.0
2017-Dec-09 11:30N 28°08' W 015°26'0 0.0
2017-Dec-09 11:00N 28°08' W 015°26'0 0.0
2017-Dec-09 10:21N 28°08' W 015°26'0 0.0
2017-Dec-09 10:00N 28°08' W 015°26'0 0.0
2017-Dec-09 09:30N 28°08' W 015°26'0 0.0
2017-Dec-09 09:00N 28°08' W 015°26'0 0.0
2017-Dec-09 08:21N 28°08' W 015°26'0 0.0
2017-Dec-09 07:51N 28°08' W 015°26'0 0.0
2017-Dec-09 07:21N 28°08' W 015°26'0 0.0
2017-Dec-09 06:54N 28°08' W 015°26'0 0.0
2017-Dec-09 06:24N 28°08' W 015°26'0 0.0
2017-Dec-09 05:54N 28°08' W 015°26'0 0.0
2017-Dec-09 05:24N 28°08' W 015°26'0 0.0
2017-Dec-09 04:54N 28°08' W 015°26'0 0.0
2017-Dec-09 04:27N 28°08' W 015°26'0 0.0
2017-Dec-09 03:54N 28°08' W 015°26'0 0.0
2017-Dec-09 03:27N 28°08' W 015°26'0 0.0
2017-Dec-09 02:57N 28°08' W 015°26'0 0.0
2017-Dec-09 02:27N 28°08' W 015°26'0 0.0
2017-Dec-09 01:57N 28°08' W 015°26'0 0.0
2017-Dec-09 01:30N 28°08' W 015°26'0 0.0
2017-Dec-09 01:00N 28°08' W 015°26'0 0.0
2017-Dec-09 00:30N 28°08' W 015°26'0 0.0
2017-Dec-09 00:00N 28°08' W 015°26'0 0.0
2017-Dec-08 23:30N 28°08' W 015°26'0 0.0
2017-Dec-08 23:00N 28°08' W 015°26'0 0.0
2017-Dec-08 22:30N 28°08' W 015°26'0 0.0
2017-Dec-08 22:00N 28°08' W 015°26'0 0.0
2017-Dec-08 21:30N 28°08' W 015°26'0 0.0
2017-Dec-08 21:00N 28°08' W 015°26'0 0.0
2017-Dec-08 20:30N 28°08' W 015°26'0 0.0
2017-Dec-08 20:00N 28°08' W 015°26'0 0.0
2017-Dec-08 19:30N 28°08' W 015°26'0 0.0
2017-Dec-08 19:00N 28°08' W 015°26'0 0.0
2017-Dec-08 18:18N 28°08' W 015°26'0 0.0
2017-Dec-08 17:51N 28°08' W 015°26'0 0.0
2017-Dec-08 16:54N 28°08' W 015°26'0 0.0
2017-Dec-08 16:24N 28°08' W 015°26'0 0.0
2017-Dec-08 15:54N 28°08' W 015°26'0 0.0
2017-Dec-08 15:24N 28°08' W 015°26'0 0.0
2017-Dec-08 14:54N 28°08' W 015°26'0 0.0
2017-Dec-08 14:24N 28°08' W 015°26'0 0.0
2017-Dec-08 13:57N 28°08' W 015°26'0 0.0
2017-Dec-08 13:27N 28°08' W 015°26'0 0.0
2017-Dec-08 12:57N 28°08' W 015°26'0 0.0
2017-Dec-08 12:24N 28°08' W 015°26'0 0.0
2017-Dec-08 11:57N 28°08' W 015°26'0 0.1
2017-Dec-08 11:29N 28°08' W 015°26'2 4.1
2017-Dec-08 10:59N 28°08' W 015°23'3 5.0
2017-Dec-08 10:29N 28°08' W 015°20'3 5.2
2017-Dec-08 09:58N 28°09' W 015°18'3 6.7
2017-Dec-08 09:28N 28°10' W 015°14'3 5.8
2017-Dec-08 08:58N 28°10' W 015°11'3 5.7
2017-Dec-08 08:26N 28°11' W 015°07'3 5.8
2017-Dec-08 07:57N 28°12' W 015°04'3 4.8
2017-Dec-08 07:25N 28°13' W 015°02'2 4.8
2017-Dec-08 06:56N 28°14' W 014°59'2 4.7
2017-Dec-08 06:25N 28°15' W 014°57'2 4.8
2017-Dec-08 05:55N 28°17' W 014°55'2 4.9
2017-Dec-08 05:25N 28°18' W 014°52'2 4.8
2017-Dec-08 05:00N 28°19' W 014°50'  
2017-Dec-01 23:00N 28°25' W 014°48'3 5.8
2017-Dec-01 22:29N 28°24' W 014°52'3 6.1
2017-Dec-01 22:00N 28°23' W 014°55'3 6.0
2017-Dec-01 21:29N 28°22' W 014°58'3 6.1
2017-Dec-01 21:00N 28°20' W 015°01'3 6.1
2017-Dec-01 20:30N 28°18' W 015°04'3 5.7
2017-Dec-01 20:00N 28°17' W 015°06'3 5.5
2017-Dec-01 19:30N 28°16' W 015°09'3 5.3
2017-Dec-01 18:59N 28°14' W 015°12'3 5.2
2017-Dec-01 18:29N 28°13' W 015°14'3 5.0
2017-Dec-01 17:59N 28°11' W 015°16'3 5.3
2017-Dec-01 17:28N 28°10' W 015°19'3 5.7
2017-Dec-01 16:58N 28°09' W 015°22'3 5.5
2017-Dec-01 16:28N 28°07' W 015°25'1 1.3
2017-Dec-01 15:53N 28°08' W 015°26'0 0.0
2017-Dec-01 15:23N 28°08' W 015°26'0 0.0
2017-Dec-01 14:53N 28°08' W 015°26'0 0.0
2017-Dec-01 14:23N 28°08' W 015°26'0 0.0
2017-Dec-01 13:53N 28°08' W 015°26'0 0.0
2017-Dec-01 13:23N 28°08' W 015°26'0 0.0
2017-Dec-01 12:53N 28°08' W 015°26'0 0.0
2017-Dec-01 12:26N 28°08' W 015°26'0 0.0
2017-Dec-01 11:59N 28°08' W 015°26'0 0.0
2017-Dec-01 11:29N 28°08' W 015°26'0 0.0
2017-Dec-01 10:59N 28°08' W 015°26'0 0.0
2017-Dec-01 10:29N 28°08' W 015°26'0 0.0
2017-Dec-01 09:59N 28°08' W 015°26'0 0.0
2017-Dec-01 09:26N 28°08' W 015°26'0 0.0
2017-Dec-01 08:59N 28°08' W 015°26'0 0.0
2017-Dec-01 08:26N 28°08' W 015°26'0 0.0
2017-Dec-01 07:57N 28°08' W 015°26'0 0.0
2017-Dec-01 07:27N 28°08' W 015°26'0 0.0
2017-Dec-01 07:00N 28°08' W 015°26'1 1.6
2017-Dec-01 06:29N 28°07' W 015°25'2 3.6
2017-Dec-01 05:58N 28°09' W 015°24'3 5.6
2017-Dec-01 05:28N 28°12' W 015°25'3 6.2
2017-Dec-01 04:58N 28°12' W 015°28'3 6.0
2017-Dec-01 04:27N 28°12' W 015°32'3 6.1
2017-Dec-01 03:56N 28°11' W 015°35'  

Dump ship's entire track history